createdAt,value
2023-03-17T00:01:51.646Z,98042.44
2023-03-17T00:04:19.778Z,98047.69
2023-03-17T00:06:47.759Z,98042.44
2023-03-17T00:09:17.225Z,98042.50
2023-03-17T00:11:45.451Z,98037.97
2023-03-17T00:14:12.561Z,98035.22
2023-03-17T00:16:43.129Z,98045.59
2023-03-17T00:19:21.828Z,98044.81
2023-03-17T00:21:50.072Z,98047.41
2023-03-17T00:24:17.368Z,98041.22
2023-03-17T00:26:44.955Z,98050.66
2023-03-17T00:29:12.226Z,98041.13
2023-03-17T00:31:39.837Z,98044.66
2023-03-17T00:34:08.208Z,98052.44
2023-03-17T00:36:36.081Z,98045.66
2023-03-17T00:39:06.672Z,98049.94
2023-03-17T00:41:33.804Z,98045.59
2023-03-17T00:44:00.820Z,98045.66
2023-03-17T00:46:35.894Z,98053.44
2023-03-17T00:51:45.004Z,98064.56
2023-03-17T00:54:13.917Z,98066.88
2023-03-17T00:56:42.512Z,98069.47
2023-03-17T00:59:19.425Z,98069.63
2023-03-17T01:01:46.911Z,98067.78
2023-03-17T01:04:14.513Z,98067.03
2023-03-17T01:06:42.144Z,98072.22
2023-03-17T01:09:14.908Z,98074.81
2023-03-17T01:11:42.374Z,98082.59
2023-03-17T01:14:11.945Z,98082.50
2023-03-17T01:16:39.132Z,98084.44
2023-03-17T01:19:06.619Z,98082.84
2023-03-17T01:21:33.938Z,98083.53
2023-03-17T01:24:01.732Z,98086.28
2023-03-17T01:26:28.829Z,98084.63
2023-03-17T01:28:56.222Z,98094.00
2023-03-17T01:31:24.605Z,98088.03
2023-03-17T01:33:52.984Z,98100.25
2023-03-17T01:36:20.812Z,98090.88
2023-03-17T01:38:50.885Z,98108.13
2023-03-17T01:41:19.305Z,98101.34
2023-03-17T01:43:46.456Z,98105.44
2023-03-17T01:46:47.645Z,98108.88
2023-03-17T01:49:30.185Z,98110.78
2023-03-17T01:52:11.803Z,98108.28
2023-03-17T01:54:59.304Z,98105.44
2023-03-17T01:57:56.699Z,98097.56
2023-03-17T02:00:25.256Z,98116.53
2023-03-17T02:02:55.661Z,98127.94
2023-03-17T02:05:33.152Z,98117.63
2023-03-17T02:08:00.405Z,98120.16
2023-03-17T02:10:29.998Z,98117.63
2023-03-17T02:12:59.914Z,98124.66
2023-03-17T02:15:44.206Z,98125.84
2023-03-17T02:18:12.869Z,98121.41
2023-03-17T02:20:39.825Z,98135.38
2023-03-17T02:23:07.934Z,98137.06
2023-03-17T02:25:36.947Z,98134.66
2023-03-17T02:28:11.097Z,98132.13
2023-03-17T02:30:38.175Z,98125.13
2023-03-17T02:33:06.133Z,98142.59
2023-03-17T02:35:33.235Z,98137.66
2023-03-17T02:38:01.175Z,98134.06
2023-03-17T02:40:30.146Z,98138.31
2023-03-17T02:42:57.660Z,98139.41
2023-03-17T02:45:28.996Z,98142.00
2023-03-17T02:47:57.387Z,98144.53
2023-03-17T02:50:27.940Z,98140.53
2023-03-17T02:52:55.213Z,98153.53
2023-03-17T02:55:22.454Z,98149.13
2023-03-17T02:57:49.378Z,98143.50
2023-03-17T03:00:16.689Z,98144.84
2023-03-17T03:02:43.908Z,98144.69
2023-03-17T03:05:11.031Z,98142.25
2023-03-17T03:07:38.048Z,98138.94
2023-03-17T03:10:05.857Z,98134.59
2023-03-17T03:12:32.834Z,98135.25
2023-03-17T03:15:00.800Z,98138.94
2023-03-17T03:17:27.942Z,98140.19
2023-03-17T03:19:55.500Z,98138.44
2023-03-17T03:22:22.510Z,98139.44
2023-03-17T03:24:49.499Z,98140.19
2023-03-17T03:27:17.031Z,98145.38
2023-03-17T03:29:44.304Z,98146.31
2023-03-17T03:32:11.344Z,98145.38
2023-03-17T03:34:38.457Z,98149.78
2023-03-17T03:37:06.090Z,98142.22
2023-03-17T03:39:33.065Z,98144.91
2023-03-17T03:42:00.110Z,98149.16
2023-03-17T03:44:27.241Z,98152.47
2023-03-17T03:46:54.201Z,98152.38
2023-03-17T03:49:21.448Z,98160.16
2023-03-17T03:51:48.674Z,98160.25
2023-03-17T03:54:15.649Z,98154.41
2023-03-17T03:56:42.771Z,98159.50
2023-03-17T03:59:09.891Z,98171.88
2023-03-17T04:01:36.869Z,98176.94
2023-03-17T04:04:03.918Z,98169.03
2023-03-17T04:06:30.953Z,98170.69
2023-03-17T04:08:58.489Z,98166.59
2023-03-17T04:11:26.014Z,98165.66
2023-03-17T04:13:53.048Z,98171.63
2023-03-17T04:16:20.055Z,98169.28
2023-03-17T04:18:47.206Z,98176.88
2023-03-17T04:21:18.497Z,98181.88
2023-03-17T04:23:46.684Z,98178.47
2023-03-17T04:26:13.778Z,98184.56
2023-03-17T04:28:40.970Z,98189.56
2023-03-17T04:31:10.224Z,98184.56
2023-03-17T04:33:37.198Z,98186.31
2023-03-17T04:36:04.927Z,98197.19
2023-03-17T04:38:31.917Z,98192.09
2023-03-17T04:40:58.932Z,98191.31
2023-03-17T04:43:26.002Z,98193.25
2023-03-17T04:45:53.061Z,98190.56
2023-03-17T04:48:20.101Z,98194.16
2023-03-17T04:50:48.109Z,98197.09
2023-03-17T04:53:15.136Z,98199.66
2023-03-17T04:55:42.329Z,98196.44
2023-03-17T04:58:11.770Z,98199.03
2023-03-17T05:00:40.538Z,98200.59
2023-03-17T05:03:20.198Z,98223.91
2023-03-17T05:05:53.951Z,98214.13
2023-03-17T05:08:21.089Z,98207.78
2023-03-17T05:10:48.206Z,98214.47
2023-03-17T05:13:16.089Z,98218.47
2023-03-17T05:15:51.612Z,98212.03
2023-03-17T05:18:20.048Z,98227.25
2023-03-17T05:20:47.203Z,98216.53
2023-03-17T05:23:14.348Z,98201.56
2023-03-17T05:25:41.863Z,98216.03
2023-03-17T05:28:10.235Z,98220.69
2023-03-17T05:30:37.365Z,98219.94
2023-03-17T05:33:04.456Z,98232.16
2023-03-17T05:35:31.694Z,98220.28
2023-03-17T05:37:58.646Z,98228.78
2023-03-17T05:40:25.639Z,98232.16
2023-03-17T05:42:52.765Z,98236.66
2023-03-17T05:45:19.889Z,98233.00
2023-03-17T05:47:47.545Z,98239.00
2023-03-17T05:50:15.073Z,98236.22
2023-03-17T05:52:42.155Z,98246.34
2023-03-17T05:55:09.675Z,98243.75
2023-03-17T05:57:37.067Z,98241.00
2023-03-17T06:00:05.500Z,98237.56
2023-03-17T06:02:32.932Z,98238.31
2023-03-17T06:05:00.066Z,98241.47
2023-03-17T06:07:31.232Z,98238.53
2023-03-17T06:10:06.868Z,98242.63
2023-03-17T06:12:34.027Z,98232.66
2023-03-17T06:15:01.060Z,98247.28
2023-03-17T06:17:28.229Z,98241.25
2023-03-17T06:19:55.347Z,98247.47
2023-03-17T06:22:22.411Z,98249.72
2023-03-17T06:24:49.465Z,98267.19
2023-03-17T06:27:16.584Z,98256.66
2023-03-17T06:29:43.785Z,98254.63
2023-03-17T06:32:20.313Z,98277.16
2023-03-17T06:34:48.333Z,98261.13
2023-03-17T06:37:16.656Z,98273.66
2023-03-17T06:39:44.003Z,98255.50
2023-03-17T06:42:11.167Z,98265.81
2023-03-17T06:44:38.135Z,98265.16
2023-03-17T06:47:05.329Z,98272.56
2023-03-17T06:49:32.823Z,98265.16
2023-03-17T06:52:00.121Z,98266.63
2023-03-17T06:54:29.218Z,98278.41
2023-03-17T06:56:56.277Z,98262.00
2023-03-17T06:59:23.361Z,98277.38
2023-03-17T07:01:50.509Z,98270.06
2023-03-17T07:04:17.704Z,98260.25
2023-03-17T07:06:45.121Z,98264.59
2023-03-17T07:09:12.461Z,98274.31
2023-03-17T07:11:39.503Z,98277.03
2023-03-17T07:14:06.913Z,98275.72
2023-03-17T07:16:34.322Z,98276.66
2023-03-17T07:19:02.279Z,98276.09
2023-03-17T07:21:29.341Z,98279.81
2023-03-17T07:23:56.423Z,98278.22
2023-03-17T07:26:23.480Z,98285.56
2023-03-17T07:28:51.002Z,98299.09
2023-03-17T07:31:18.143Z,98288.28
2023-03-17T07:33:45.418Z,98270.66
2023-03-17T07:36:12.987Z,98278.06
2023-03-17T07:38:40.037Z,98291.72
2023-03-17T07:41:10.039Z,98294.31
2023-03-17T07:43:37.855Z,98276.72
2023-03-17T07:46:06.438Z,98273.75
2023-03-17T07:48:34.598Z,98270.94
2023-03-17T07:51:01.710Z,98278.31
2023-03-17T07:53:28.844Z,98265.31
2023-03-17T07:55:56.192Z,98270.97
2023-03-17T07:58:23.266Z,98267.44
2023-03-17T08:00:50.368Z,98275.25
2023-03-17T08:03:17.494Z,98272.19
2023-03-17T08:05:44.814Z,98280.81
2023-03-17T08:08:12.844Z,98294.34
2023-03-17T08:10:42.651Z,98278.28
2023-03-17T08:13:09.722Z,98279.69
2023-03-17T08:15:36.884Z,98278.94
2023-03-17T08:18:04.192Z,98290.53
2023-03-17T08:20:31.959Z,98284.50
2023-03-17T08:22:59.124Z,98290.53
2023-03-17T08:25:26.627Z,98288.13
2023-03-17T08:27:54.290Z,98286.19
2023-03-17T08:30:21.738Z,98299.16
2023-03-17T08:32:48.837Z,98293.22
2023-03-17T08:35:17.136Z,98308.16
2023-03-17T08:37:45.492Z,98297.75
2023-03-17T08:40:17.077Z,98290.56
2023-03-17T08:42:44.912Z,98291.94
2023-03-17T08:45:13.058Z,98296.84
2023-03-17T08:47:40.434Z,98293.47
2023-03-17T08:50:11.558Z,98288.78
2023-03-17T08:52:38.783Z,98292.59
2023-03-17T08:55:08.957Z,98299.84
2023-03-17T08:57:36.375Z,98293.72
2023-03-17T09:00:11.058Z,98292.22
2023-03-17T09:02:40.062Z,98302.88
2023-03-17T09:05:09.657Z,98286.50
2023-03-17T09:07:36.845Z,98290.53
2023-03-17T09:10:07.237Z,98287.97
2023-03-17T09:12:34.539Z,98283.88
2023-03-17T09:15:02.050Z,98270.28
2023-03-17T09:17:29.204Z,98287.09
2023-03-17T09:19:56.234Z,98282.06
2023-03-17T09:22:23.383Z,98284.44
2023-03-17T09:24:50.753Z,98290.31
2023-03-17T09:27:17.973Z,98284.84
2023-03-17T09:29:45.074Z,98279.84
2023-03-17T09:32:12.138Z,98281.81
2023-03-17T09:34:39.310Z,98288.78
2023-03-17T09:37:06.915Z,98276.81
2023-03-17T09:39:34.297Z,98284.94
2023-03-17T09:42:19.526Z,98276.91
2023-03-17T10:17:35.359Z,98271.50
2023-03-17T10:20:14.937Z,98277.16
2023-03-17T10:23:06.136Z,98278.25
2023-03-17T10:25:36.611Z,98270.91
2023-03-17T10:28:12.528Z,98265.91
2023-03-17T10:30:40.350Z,98275.13
2023-03-17T10:33:07.909Z,98285.84
2023-03-17T10:35:39.559Z,98254.03
2023-03-17T10:38:22.206Z,98276.25
2023-03-17T10:41:07.572Z,98270.13
2023-03-17T10:43:53.726Z,98260.53
2023-03-17T10:46:24.522Z,98268.91
2023-03-17T10:48:58.591Z,98270.78
2023-03-17T10:51:31.788Z,98256.78
2023-03-17T10:54:08.240Z,98258.44
2023-03-17T10:56:42.462Z,98275.56
2023-03-17T10:59:25.980Z,98273.31
2023-03-17T11:01:56.448Z,98255.19
2023-03-17T11:04:39.441Z,98251.00
2023-03-17T11:07:20.461Z,98254.84
2023-03-17T11:09:55.267Z,98257.53
2023-03-17T11:12:26.954Z,98259.31
2023-03-17T11:15:03.486Z,98273.69
2023-03-17T11:17:30.522Z,98265.84
2023-03-17T11:20:31.826Z,98271.78
2023-03-17T11:23:19.589Z,98270.63
2023-03-17T11:25:52.164Z,98271.34
2023-03-17T11:28:21.858Z,98279.50
2023-03-17T11:31:26.175Z,98274.78
2023-03-17T11:34:05.651Z,98278.25
2023-03-17T11:36:33.626Z,98277.97
2023-03-17T11:39:05.826Z,98280.09
2023-03-17T11:41:41.931Z,98285.88
2023-03-17T11:44:08.839Z,98266.94
2023-03-17T11:47:05.371Z,98270.47
2023-03-17T11:49:37.785Z,98265.13
2023-03-17T11:52:25.521Z,98252.06
2023-03-17T11:55:07.994Z,98256.78
2023-03-17T11:57:55.249Z,98260.09
2023-03-17T12:00:33.184Z,98254.88
2023-03-17T12:03:00.761Z,98256.66
2023-03-17T12:05:30.194Z,98263.16
2023-03-17T12:08:03.831Z,98256.22
2023-03-17T12:10:39.164Z,98259.75
2023-03-17T12:13:09.958Z,98267.31
2023-03-17T12:15:47.385Z,98269.06
2023-03-17T12:18:35.384Z,98276.31
2023-03-17T12:21:22.868Z,98285.81
2023-03-17T12:24:06.231Z,98282.50
2023-03-17T12:26:38.182Z,98276.31
2023-03-17T12:29:22.895Z,98283.44
2023-03-17T12:32:02.775Z,98273.00
2023-03-17T12:34:46.923Z,98269.56
2023-03-17T12:37:16.241Z,98276.31
2023-03-17T12:39:50.396Z,98275.16
2023-03-17T12:42:17.315Z,98280.25
2023-03-17T12:45:02.988Z,98281.06
2023-03-17T12:47:45.417Z,98287.25
2023-03-17T12:50:32.870Z,98275.97
2023-03-17T12:53:29.801Z,98273.09
2023-03-17T12:56:15.880Z,98283.19
2023-03-17T12:58:49.650Z,98274.53
2023-03-17T13:01:17.608Z,98265.88
2023-03-17T13:04:01.632Z,98254.22
2023-03-17T13:06:34.915Z,98257.19
2023-03-17T13:09:47.060Z,98266.81
2023-03-17T13:12:44.630Z,98256.00
2023-03-17T13:15:46.980Z,98259.19
2023-03-17T13:18:17.001Z,98256.47
2023-03-17T13:21:13.085Z,98258.72
2023-03-17T13:23:53.646Z,98257.06
2023-03-17T13:26:42.460Z,98259.09
2023-03-17T13:29:23.855Z,98266.00
2023-03-17T13:31:51.089Z,98263.38
2023-03-17T13:34:20.527Z,98260.38
2023-03-17T13:37:19.932Z,98264.44
2023-03-17T13:40:18.142Z,98274.31
2023-03-17T13:42:54.651Z,98274.66
2023-03-17T13:45:37.886Z,98275.38
2023-03-17T13:48:37.770Z,98275.00
2023-03-17T13:51:25.930Z,98268.59
2023-03-17T13:54:34.069Z,98268.72
2023-03-17T13:57:19.662Z,98273.09
2023-03-17T14:00:07.525Z,98273.47
2023-03-17T14:02:38.726Z,98277.50
2023-03-17T14:05:19.356Z,98279.06
2023-03-17T14:07:57.039Z,98292.72
2023-03-17T14:10:28.714Z,98296.63
2023-03-17T14:12:59.589Z,98291.66
2023-03-17T14:15:33.036Z,98286.78
2023-03-17T14:18:11.194Z,98294.28
2023-03-17T14:20:38.359Z,98302.25
2023-03-17T14:23:06.734Z,98292.63
2023-03-17T14:25:36.731Z,98295.47
2023-03-17T14:28:11.093Z,98288.78
2023-03-17T14:30:38.707Z,98297.94
2023-03-17T14:33:30.095Z,98310.78
2023-03-17T14:36:02.769Z,98305.34
2023-03-17T14:38:38.521Z,98297.25
2023-03-17T14:41:07.340Z,98297.59
2023-03-17T14:43:36.303Z,98298.06
2023-03-17T14:46:07.772Z,98308.66
2023-03-17T14:48:41.735Z,98294.28
2023-03-17T14:51:30.647Z,98305.22
2023-03-17T14:54:01.162Z,98311.50
2023-03-17T14:56:49.040Z,98307.84
2023-03-17T14:59:56.528Z,98323.88
2023-03-17T15:02:38.084Z,98320.66
2023-03-17T15:05:05.672Z,98321.94
2023-03-17T15:07:41.501Z,98329.56
2023-03-17T15:10:24.506Z,98323.75
2023-03-17T15:13:01.618Z,98321.72
2023-03-17T15:15:34.292Z,98327.44
2023-03-17T15:18:10.657Z,98328.59
2023-03-17T15:20:37.883Z,98331.00
2023-03-17T15:23:17.102Z,98329.06
2023-03-17T15:25:51.287Z,98330.63
2023-03-17T15:28:20.893Z,98329.06
2023-03-17T15:30:50.734Z,98327.28
2023-03-17T15:33:29.976Z,98325.03
2023-03-17T15:36:00.218Z,98330.13
2023-03-17T15:38:27.770Z,98332.63
2023-03-17T15:40:55.379Z,98332.47
2023-03-17T15:43:23.058Z,98340.78
2023-03-17T15:45:56.134Z,98345.19
2023-03-17T15:48:27.756Z,98336.97
2023-03-17T15:50:56.911Z,98343.69
2023-03-17T15:53:23.974Z,98334.41
2023-03-17T15:55:51.315Z,98348.63
2023-03-17T15:58:18.341Z,98347.91
2023-03-17T16:00:50.159Z,98339.34
2023-03-17T16:03:26.045Z,98345.13
2023-03-17T16:05:53.628Z,98340.94
2023-03-17T16:08:21.932Z,98342.47
2023-03-17T16:10:49.120Z,98344.56
2023-03-17T16:17:38.837Z,98344.50
2023-03-17T16:20:06.433Z,98341.25
2023-03-17T16:22:39.648Z,98353.38
2023-03-17T16:25:21.602Z,98346.09
2023-03-17T16:27:49.430Z,98345.88
2023-03-17T16:30:37.931Z,98350.19
2023-03-17T16:33:16.767Z,98347.41
2023-03-17T16:35:44.298Z,98349.06
2023-03-17T16:38:14.251Z,98356.88
2023-03-17T16:40:41.983Z,98355.09
2023-03-17T16:43:26.254Z,98355.34
2023-03-17T16:46:03.317Z,98358.56
2023-03-17T16:48:31.262Z,98361.50
2023-03-17T16:50:58.841Z,98357.22
2023-03-17T16:53:26.359Z,98361.41
2023-03-17T16:55:55.148Z,98368.50
2023-03-17T16:58:25.453Z,98362.75
2023-03-17T17:00:56.918Z,98360.59
2023-03-17T17:03:23.950Z,98364.34
2023-03-17T17:05:51.420Z,98363.72
2023-03-17T17:08:18.495Z,98361.09
2023-03-17T17:10:45.788Z,98361.09
2023-03-17T17:13:13.053Z,98365.91
2023-03-17T17:15:41.239Z,98367.69
2023-03-17T17:18:14.420Z,98367.88
2023-03-17T17:20:43.221Z,98363.72
2023-03-17T17:24:20.178Z,98366.44
2023-03-17T17:26:47.379Z,98368.53
2023-03-17T17:29:17.667Z,98373.22
2023-03-17T17:31:44.987Z,98384.47
2023-03-17T17:34:16.412Z,98368.50
2023-03-17T17:36:43.630Z,98376.34
2023-03-17T17:39:14.779Z,98374.59
2023-03-17T17:41:41.801Z,98367.28
2023-03-17T17:44:08.915Z,98373.53
2023-03-17T17:46:36.099Z,98372.59
2023-03-17T17:49:03.729Z,98378.00
2023-03-17T17:51:32.793Z,98379.69
2023-03-17T17:53:59.886Z,98383.03
2023-03-17T17:56:26.893Z,98383.97
2023-03-17T17:58:54.032Z,98378.53
2023-03-17T18:01:22.785Z,98379.78
2023-03-17T18:03:49.763Z,98377.88
2023-03-17T18:06:18.014Z,98380.06
2023-03-17T18:08:45.248Z,98374.88
2023-03-17T18:11:12.508Z,98367.69
2023-03-17T18:13:40.387Z,98374.44
2023-03-17T18:16:12.746Z,98371.66
2023-03-17T18:18:42.450Z,98369.25
2023-03-17T18:21:10.545Z,98379.94
2023-03-17T18:23:38.891Z,98379.88
2023-03-17T18:26:06.361Z,98378.28
2023-03-17T18:28:34.264Z,98383.38
2023-03-17T18:31:09.703Z,98375.69
2023-03-17T18:33:37.444Z,98382.66
2023-03-17T18:36:08.900Z,98381.13
2023-03-17T18:38:36.554Z,98382.13
2023-03-17T18:41:04.241Z,98376.81
2023-03-17T18:43:31.503Z,98373.63
2023-03-17T18:45:58.985Z,98380.72
2023-03-17T18:48:26.077Z,98385.91
2023-03-17T18:50:53.307Z,98386.09
2023-03-17T18:53:20.410Z,98390.78
2023-03-17T18:55:47.542Z,98392.91
2023-03-17T18:58:15.004Z,98395.28
2023-03-17T19:00:42.814Z,98393.91
2023-03-17T19:03:10.190Z,98397.97
2023-03-17T19:05:38.502Z,98397.88
2023-03-17T19:08:06.824Z,98396.28
2023-03-17T19:10:34.620Z,98395.25
2023-03-17T19:13:02.031Z,98394.91
2023-03-17T19:15:29.441Z,98392.97
2023-03-17T19:17:56.651Z,98394.63
2023-03-17T19:20:23.672Z,98396.50
2023-03-17T19:22:53.329Z,98395.03
2023-03-17T19:25:21.390Z,98405.66
2023-03-17T19:27:48.505Z,98399.69
2023-03-17T19:30:16.273Z,98410.09
2023-03-17T19:32:43.650Z,98408.63
2023-03-17T19:35:11.761Z,98406.63
2023-03-17T19:37:39.176Z,98407.56
2023-03-17T19:40:09.660Z,98407.56
2023-03-17T19:42:37.227Z,98397.03
2023-03-17T19:45:05.012Z,98403.16
2023-03-17T19:47:31.999Z,98398.25
2023-03-17T19:49:59.051Z,98395.34
2023-03-17T19:52:26.237Z,98398.97
2023-03-17T19:54:53.966Z,98397.41
2023-03-17T19:57:22.336Z,98397.03
2023-03-17T19:59:49.463Z,98403.91
2023-03-17T20:02:17.228Z,98401.53
2023-03-17T20:04:44.699Z,98407.00
2023-03-17T20:07:11.967Z,98399.09
2023-03-17T20:09:39.484Z,98397.81
2023-03-17T20:12:06.768Z,98396.56
2023-03-17T20:14:34.356Z,98394.88
2023-03-17T20:17:01.582Z,98398.78
2023-03-17T20:19:29.297Z,98393.03
2023-03-17T20:21:58.619Z,98397.31
2023-03-17T20:24:27.149Z,98400.31
2023-03-17T20:26:56.944Z,98393.50
2023-03-17T20:29:24.485Z,98389.97
2023-03-17T20:31:51.880Z,98392.56
2023-03-17T20:34:20.058Z,98382.28
2023-03-17T20:36:48.245Z,98388.50
2023-03-17T20:39:20.007Z,98383.09
2023-03-17T20:41:48.600Z,98388.88
2023-03-17T20:44:16.699Z,98386.38
2023-03-17T20:46:44.732Z,98379.69
2023-03-17T20:49:12.499Z,98378.84
2023-03-17T20:51:40.978Z,98384.53
2023-03-17T20:54:08.858Z,98380.91
2023-03-17T20:56:37.482Z,98387.78
2023-03-17T20:59:05.532Z,98381.75
2023-03-17T21:01:35.875Z,98383.03
2023-03-17T21:04:06.554Z,98375.44
2023-03-17T21:06:34.412Z,98373.47
2023-03-17T21:09:02.534Z,98367.38
2023-03-17T21:11:30.744Z,98366.88
2023-03-17T21:13:58.045Z,98375.34
2023-03-17T21:16:27.918Z,98371.19
2023-03-17T21:18:54.962Z,98367.09
2023-03-17T21:21:22.711Z,98370.03
2023-03-17T21:23:49.708Z,98366.34
2023-03-17T21:27:26.236Z,98370.41
2023-03-17T21:29:53.439Z,98362.06
2023-03-17T21:32:20.471Z,98364.09
2023-03-17T21:34:48.249Z,98364.28
2023-03-17T21:37:18.390Z,98365.31
2023-03-17T21:39:45.981Z,98365.41
2023-03-17T21:42:13.767Z,98360.97
2023-03-17T21:44:40.843Z,98358.06
2023-03-17T21:47:08.250Z,98365.41
2023-03-17T21:49:35.367Z,98366.88
2023-03-17T21:52:02.532Z,98365.22
2023-03-17T21:54:30.586Z,98366.25
2023-03-17T21:56:58.438Z,98367.38
2023-03-17T21:59:25.630Z,98363.19
2023-03-17T22:01:53.195Z,98361.69
2023-03-17T22:04:20.776Z,98374.16
2023-03-17T22:06:47.860Z,98368.97
2023-03-17T22:09:16.960Z,98372.47
2023-03-17T22:11:45.168Z,98372.56
2023-03-17T22:14:13.423Z,98374.78
2023-03-17T22:16:40.561Z,98370.16
2023-03-17T22:19:09.934Z,98372.47
2023-03-17T22:21:37.015Z,98371.19
2023-03-17T22:24:04.418Z,98377.28
2023-03-17T22:26:31.393Z,98381.00
2023-03-17T22:28:59.754Z,98370.78
2023-03-17T22:31:29.494Z,98389.91
2023-03-17T22:33:58.247Z,98377.38
2023-03-17T22:36:26.627Z,98385.34
2023-03-17T22:38:54.700Z,98389.84
2023-03-17T22:41:24.945Z,98385.44
2023-03-17T22:43:52.138Z,98388.84
2023-03-17T22:46:20.176Z,98384.34
2023-03-17T22:48:47.918Z,98397.03
2023-03-17T22:51:18.152Z,98384.69
2023-03-17T22:53:45.428Z,98393.41
2023-03-17T22:56:14.009Z,98386.38
2023-03-17T22:58:41.634Z,98388.41
2023-03-17T23:01:10.726Z,98385.16
2023-03-17T23:07:59.797Z,98388.22
2023-03-17T23:10:27.509Z,98384.34
2023-03-17T23:12:54.792Z,98376.34
2023-03-17T23:15:22.149Z,98380.81
2023-03-17T23:17:49.224Z,98387.00
2023-03-17T23:20:17.519Z,98375.41
2023-03-17T23:22:44.557Z,98378.38
2023-03-17T23:25:13.715Z,98377.53
2023-03-17T23:27:41.494Z,98374.38
2023-03-17T23:30:11.276Z,98371.22
2023-03-17T23:32:40.758Z,98373.06
2023-03-17T23:36:17.086Z,98373.91
2023-03-17T23:38:45.595Z,98370.00
2023-03-17T23:41:13.503Z,98366.47
2023-03-17T23:43:41.652Z,98372.03
2023-03-17T23:46:08.804Z,98363.50
2023-03-17T23:48:36.057Z,98367.00
2023-03-17T23:51:03.399Z,98361.06
2023-03-17T23:53:31.532Z,98355.72
2023-03-17T23:55:59.864Z,98352.56
2023-03-17T23:58:27.757Z,98355.72
